This is the latest recevied weather packets stored in our database for station/object M0XDC. If no packets are shown the sender has not sent any weather packets the latest 10 day(s).
| Time | Temp. | Humidity | Pressure | Rain* | Wind** | Luminosity | Snow |
|---|---|---|---|---|---|---|---|
| 1777794274 | 14.44° C | 78% | 1007.3 hPa | 0 mm | - | - | - |
| 1777792474 | 13.33° C | 83% | 1007.4 hPa | 0 mm | - | - | - |
| 1777790673 | 12.78° C | 84% | 1007.4 hPa | 0 mm | - | - | - |
| 1777788874 | 13.33° C | 85% | 1007.3 hPa | 0 mm | - | - | - |
| 1777787074 | 12.78° C | 87% | 1007.3 hPa | 0 mm | - | - | - |
| 1777785274 | 12.22° C | 87% | 1007 hPa | 0 mm | - | - | - |
| 1777783474 | 12.22° C | 89% | 1007.1 hPa | 0 mm | - | - | - |
| 1777781674 | 12.22° C | 91% | 1007.3 hPa | 0 mm | - | - | - |
| 1777779874 | 12.22° C | 91% | 1007.1 hPa | 0.25 mm | - | - | - |
| 1777778074 | 12.22° C | 92% | 1007.3 hPa | 0.25 mm | - | - | - |
| 1777776274 | 12.22° C | 92% | 1007.4 hPa | 0 mm | - | - | - |
| 1777774474 | 12.22° C | 92% | 1007.9 hPa | 0 mm | - | - | - |
| 1777772673 | 12.22° C | 91% | 1007.8 hPa | 0 mm | - | - | - |
| 1777770874 | 12.22° C | 90% | 1008 hPa | 0 mm | - | - | - |
| 1777769074 | 12.22° C | 91% | 1008.3 hPa | 0 mm | - | - | - |
| 1777767274 | 12.22° C | 91% | 1008.7 hPa | 0 mm | - | - | - |
| 1777765474 | 12.22° C | 91% | 1008.7 hPa | 0 mm | - | - | - |
| 1777763674 | 12.22° C | 91% | 1008.7 hPa | 0 mm | - | - | - |
| 1777761874 | 12.22° C | 91% | 1008.9 hPa | 0 mm | - | - | - |
| 1777760074 | 12.22° C | 90% | 1008.9 hPa | 0 mm | - | - | - |
| 1777758274 | 12.22° C | 89% | 1008.7 hPa | 0 mm | - | - | - |
| 1777756474 | 12.78° C | 88% | 1009.6 hPa | 0 mm | - | - | - |
| 1777754674 | 13.33° C | 87% | 1009.9 hPa | 0 mm | - | - | - |
| 1777752874 | 13.33° C | 86% | 1010.1 hPa | 0 mm | - | - | - |
| 1777751074 | 13.33° C | 84% | 1009.7 hPa | 0 mm | - | - | - |
* Rain latest hour (hover to see other rain measurements)
** Current wind speed in m/s (hover to see current wind gust speed)